createdAt,value
2023-01-13T00:02:22.194Z,30.65
2023-01-13T00:05:28.119Z,28.13
2023-01-13T00:08:30.313Z,28.73
2023-01-13T00:11:32.857Z,29.48
2023-01-13T00:14:36.025Z,30.60
2023-01-13T00:17:39.614Z,28.48
2023-01-13T00:20:43.611Z,29.13
2023-01-13T00:23:46.562Z,25.93
2023-01-13T00:26:49.641Z,25.45
2023-01-13T00:29:55.686Z,27.83
2023-01-13T00:33:00.708Z,30.98
2023-01-13T00:36:05.738Z,25.55
2023-01-13T00:39:08.985Z,21.70
2023-01-13T00:42:36.841Z,23.52
2023-01-13T00:45:38.850Z,21.67
2023-01-13T00:48:42.489Z,26.10
2023-01-13T00:51:45.813Z,30.20
2023-01-13T00:54:47.973Z,31.67
2023-01-13T00:57:50.026Z,29.20
2023-01-13T01:00:52.420Z,27.85
2023-01-13T01:03:56.287Z,26.90
2023-01-13T01:06:59.611Z,26.90
2023-01-13T01:10:02.884Z,28.93
2023-01-13T01:13:07.517Z,32.25
2023-01-13T01:16:15.403Z,30.13
2023-01-13T01:19:18.799Z,24.85
2023-01-13T01:22:21.026Z,21.60
2023-01-13T01:25:23.738Z,22.53
2023-01-13T01:28:25.982Z,23.00
2023-01-13T01:31:32.584Z,22.10
2023-01-13T01:34:34.607Z,21.55
2023-01-13T01:37:36.640Z,21.52
2023-01-13T01:40:41.597Z,20.60
2023-01-13T01:44:06.840Z,21.15
2023-01-13T01:47:18.113Z,22.17
2023-01-13T01:50:23.558Z,20.92
2023-01-13T01:53:29.838Z,20.15
2023-01-13T01:56:34.017Z,19.87
2023-01-13T01:59:37.529Z,19.73
2023-01-13T02:02:42.021Z,18.95
2023-01-13T02:05:44.299Z,19.95
2023-01-13T02:08:47.478Z,19.48
2023-01-13T02:12:26.844Z,18.40
2023-01-13T02:15:37.462Z,19.60
2023-01-13T02:19:09.497Z,19.38
2023-01-13T02:22:17.723Z,18.58
2023-01-13T02:25:59.857Z,20.08
2023-01-13T02:29:58.048Z,17.70
2023-01-13T02:33:07.160Z,18.33
2023-01-13T02:36:43.643Z,16.98
2023-01-13T02:39:51.665Z,18.38
2023-01-13T02:43:57.507Z,19.08
2023-01-13T02:47:07.324Z,18.43
2023-01-13T02:50:17.517Z,18.73
2023-01-13T02:53:30.704Z,19.02
2023-01-13T02:56:39.816Z,19.13
2023-01-13T02:59:43.007Z,22.13
2023-01-13T03:02:45.410Z,19.03
2023-01-13T03:05:53.848Z,22.35
2023-01-13T03:09:15.445Z,21.40
2023-01-13T03:12:40.378Z,20.33
2023-01-13T03:16:39.995Z,18.27
2023-01-13T03:19:53.087Z,18.97
2023-01-13T03:23:17.753Z,18.88
2023-01-13T03:26:25.734Z,18.20
2023-01-13T03:29:37.015Z,17.67
2023-01-13T03:32:43.971Z,19.27
2023-01-13T03:35:50.827Z,21.50
2023-01-13T03:39:05.362Z,23.05
2023-01-13T03:42:17.390Z,20.17
2023-01-13T03:45:20.513Z,20.38
2023-01-13T03:48:25.234Z,19.98
2023-01-13T03:51:33.785Z,17.10
2023-01-13T03:54:45.396Z,17.88
2023-01-13T03:57:59.058Z,20.10
2023-01-13T04:01:10.631Z,23.20
2023-01-13T04:04:30.947Z,23.20
2023-01-13T04:08:06.909Z,19.57
2023-01-13T04:11:19.802Z,18.38
2023-01-13T04:14:23.769Z,18.30
2023-01-13T04:17:26.125Z,21.88
2023-01-13T04:20:28.678Z,18.73
2023-01-13T04:23:30.956Z,16.70
2023-01-13T04:26:32.886Z,17.92
2023-01-13T04:29:35.465Z,18.95
2023-01-13T04:32:37.593Z,17.65
2023-01-13T04:35:39.994Z,17.20
2023-01-13T04:38:42.947Z,15.30
2023-01-13T04:41:57.783Z,16.88
2023-01-13T04:44:59.850Z,16.15
2023-01-13T04:48:04.682Z,16.23
2023-01-13T04:51:10.804Z,16.70
2023-01-13T04:54:12.965Z,16.20
2023-01-13T04:57:16.143Z,18.17
2023-01-13T05:00:21.058Z,17.00
2023-01-13T05:03:24.862Z,19.30
2023-01-13T05:06:26.916Z,20.17
2023-01-13T05:09:29.046Z,18.93
2023-01-13T05:12:50.759Z,18.60
2023-01-13T05:16:11.526Z,18.15
2023-01-13T05:19:13.804Z,21.70
2023-01-13T05:22:34.777Z,20.65
2023-01-13T05:25:41.862Z,19.77
2023-01-13T05:28:48.603Z,19.52
2023-01-13T05:31:52.081Z,16.98
2023-01-13T05:34:55.912Z,14.88
2023-01-13T05:37:58.334Z,15.23
2023-01-13T05:41:19.202Z,15.37
2023-01-13T05:44:21.461Z,15.45
2023-01-13T05:47:23.543Z,16.23
2023-01-13T05:50:25.813Z,17.73
2023-01-13T05:53:28.808Z,19.30
2023-01-13T05:56:31.308Z,20.77
2023-01-13T05:59:33.247Z,23.20
2023-01-13T06:02:36.239Z,24.17
2023-01-13T06:05:38.610Z,19.27
2023-01-13T06:08:41.584Z,17.13
2023-01-13T06:11:43.816Z,15.97
2023-01-13T06:14:46.071Z,16.85
2023-01-13T06:17:48.951Z,18.15
2023-01-13T06:20:53.828Z,17.75
2023-01-13T06:23:56.640Z,17.48
2023-01-13T06:26:58.874Z,20.40
2023-01-13T06:30:01.289Z,23.55
2023-01-13T06:33:09.942Z,22.67
2023-01-13T06:36:19.583Z,22.90
2023-01-13T06:39:27.875Z,20.33
2023-01-13T06:42:55.614Z,18.80
2023-01-13T06:45:58.265Z,19.20
2023-01-13T06:49:03.011Z,18.02
2023-01-13T06:52:08.062Z,17.65
2023-01-13T06:55:10.694Z,19.85
2023-01-13T06:58:13.570Z,19.13
2023-01-13T07:01:18.651Z,18.90
2023-01-13T07:04:21.255Z,16.42
2023-01-13T07:07:23.784Z,15.20
2023-01-13T07:10:46.204Z,15.77
2023-01-13T07:14:28.578Z,15.33
2023-01-13T07:17:52.686Z,15.07
2023-01-13T07:21:04.619Z,16.83
2023-01-13T07:24:11.586Z,17.60
2023-01-13T07:27:22.561Z,15.05
2023-01-13T07:30:45.172Z,15.50
2023-01-13T07:33:59.957Z,15.35
2023-01-13T07:37:05.218Z,16.15
2023-01-13T07:40:10.683Z,14.82
2023-01-13T07:43:38.794Z,14.63
2023-01-13T07:46:43.715Z,16.93
2023-01-13T07:58:14.819Z,15.20
2023-01-13T08:04:53.571Z,13.87
2023-01-13T08:08:18.171Z,15.18
2023-01-13T08:11:34.391Z,13.23
2023-01-13T08:14:37.017Z,13.50
2023-01-13T08:17:45.286Z,16.25
2023-01-13T08:21:06.282Z,13.93
2023-01-13T08:24:18.954Z,12.65
2023-01-13T08:27:28.797Z,11.75
2023-01-13T08:30:43.461Z,13.07
2023-01-13T08:33:47.259Z,11.68
2023-01-13T08:36:58.963Z,11.87
2023-01-13T08:40:11.691Z,12.65
2023-01-13T08:43:24.377Z,10.88
2023-01-13T08:46:38.410Z,10.82
2023-01-13T08:49:44.613Z,9.52
2023-01-13T08:52:56.720Z,9.90
2023-01-13T08:56:24.510Z,10.55
2023-01-13T08:59:34.210Z,10.10
2023-01-13T09:07:01.303Z,9.73
2023-01-13T09:15:11.174Z,11.32
2023-01-13T09:19:05.548Z,11.85
2023-01-13T09:31:09.166Z,12.13
2023-01-13T09:34:47.300Z,11.88
2023-01-13T09:38:01.629Z,12.10
2023-01-13T09:41:24.687Z,11.80
2023-01-13T09:44:45.526Z,11.90
2023-01-13T09:48:17.090Z,12.90
2023-01-13T09:55:55.212Z,11.65
2023-01-13T09:59:16.115Z,12.10
2023-01-13T10:02:41.194Z,13.02
2023-01-13T10:10:01.373Z,15.60
2023-01-13T10:13:30.889Z,13.15
2023-01-13T10:16:50.841Z,13.75
2023-01-13T10:20:26.359Z,13.65
2023-01-13T10:23:56.362Z,11.60
2023-01-13T10:27:13.442Z,9.52
2023-01-13T10:30:19.811Z,13.10
2023-01-13T10:33:30.919Z,13.32
2023-01-13T10:36:41.420Z,14.05
2023-01-13T10:39:48.251Z,15.17
2023-01-13T10:43:12.231Z,17.92
2023-01-13T10:46:31.484Z,16.52
2023-01-13T10:49:39.341Z,13.93
2023-01-13T10:53:18.033Z,13.90
2023-01-13T10:56:30.099Z,13.30
2023-01-13T11:19:05.135Z,12.80
2023-01-13T11:22:32.834Z,14.30
2023-01-13T11:26:24.294Z,14.55
2023-01-13T11:30:30.033Z,16.83
2023-01-13T11:34:43.220Z,11.50
2023-01-13T11:57:04.672Z,13.98
2023-01-13T12:00:53.598Z,13.90
2023-01-13T12:09:16.393Z,16.30
2023-01-13T12:13:23.530Z,13.75
2023-01-13T12:17:16.911Z,17.27
2023-01-13T12:26:00.857Z,14.15
2023-01-13T12:30:04.771Z,18.20
2023-01-13T12:38:34.500Z,16.27
2023-01-13T12:42:15.830Z,15.47
2023-01-13T12:45:53.247Z,15.98
2023-01-13T12:49:50.587Z,20.10
2023-01-13T12:53:39.599Z,18.33
2023-01-13T12:56:46.962Z,17.95
2023-01-13T13:00:25.994Z,14.90
2023-01-13T13:04:36.776Z,17.55
2023-01-13T13:07:52.867Z,18.40
2023-01-13T13:11:19.980Z,17.92
2023-01-13T13:14:46.922Z,14.82
2023-01-13T13:18:31.861Z,15.23
2023-01-13T13:22:07.865Z,15.85
2023-01-13T13:25:31.417Z,15.20
2023-01-13T13:29:00.251Z,15.82
2023-01-13T13:32:18.836Z,17.35
2023-01-13T13:35:41.310Z,16.10
2023-01-13T13:39:22.236Z,15.52
2023-01-13T13:42:59.921Z,15.48
2023-01-13T13:46:20.850Z,17.40
2023-01-13T13:49:54.659Z,14.38
2023-01-13T13:53:11.290Z,17.03
2023-01-13T13:56:24.462Z,15.85
2023-01-13T13:59:48.829Z,14.63
2023-01-13T14:02:54.233Z,14.65
2023-01-13T14:06:03.752Z,15.45
2023-01-13T14:09:17.370Z,16.63
2023-01-13T14:12:26.358Z,19.45
2023-01-13T14:15:38.999Z,16.00
2023-01-13T14:18:48.289Z,14.48
2023-01-13T14:21:50.712Z,13.93
2023-01-13T14:24:59.120Z,13.33
2023-01-13T14:28:30.559Z,16.50
2023-01-13T14:31:34.467Z,15.18
2023-01-13T14:34:38.298Z,14.55
2023-01-13T14:37:42.913Z,15.68
2023-01-13T14:40:47.521Z,17.40
2023-01-13T14:43:53.846Z,16.58
2023-01-13T14:47:03.447Z,16.10
2023-01-13T14:50:08.236Z,15.57
2023-01-13T14:53:32.439Z,15.10
2023-01-13T14:56:50.123Z,16.53
2023-01-13T14:59:59.470Z,15.52
2023-01-13T15:03:08.038Z,15.38
2023-01-13T15:06:28.654Z,15.40
2023-01-13T15:09:42.987Z,15.25
2023-01-13T15:12:50.107Z,15.83
2023-01-13T15:15:57.094Z,17.30
2023-01-13T15:19:28.639Z,16.55
2023-01-13T15:22:31.454Z,14.10
2023-01-13T15:25:39.612Z,14.23
2023-01-13T15:28:43.542Z,14.60
2023-01-13T15:31:50.985Z,14.77
2023-01-13T15:35:00.840Z,13.23
2023-01-13T15:38:06.756Z,13.68
2023-01-13T15:41:15.363Z,14.50
2023-01-13T15:44:37.649Z,14.10
2023-01-13T15:47:45.657Z,14.35
2023-01-13T15:50:51.212Z,14.88
2023-01-13T15:54:00.731Z,15.98
2023-01-13T15:57:04.170Z,14.95
2023-01-13T16:00:16.362Z,18.53
2023-01-13T16:03:18.695Z,18.48
2023-01-13T16:06:33.097Z,18.35
2023-01-13T16:09:35.837Z,18.50
2023-01-13T16:12:39.752Z,16.17
2023-01-13T16:15:48.365Z,14.40
2023-01-13T16:18:54.280Z,15.55
2023-01-13T16:21:59.910Z,15.38
2023-01-13T16:25:02.827Z,17.42
2023-01-13T16:28:05.187Z,20.10
2023-01-13T16:31:23.591Z,19.67
2023-01-13T16:34:25.849Z,18.17
2023-01-13T16:37:31.592Z,18.10
2023-01-13T16:40:36.964Z,18.73
2023-01-13T16:43:39.920Z,22.08
2023-01-13T16:46:47.928Z,22.77
2023-01-13T16:49:50.365Z,19.02
2023-01-13T16:52:52.850Z,19.90
2023-01-13T16:55:55.293Z,21.63
2023-01-13T16:59:02.806Z,17.40
2023-01-13T17:02:11.991Z,19.53
2023-01-13T17:05:15.193Z,18.15
2023-01-13T17:08:18.227Z,17.42
2023-01-13T17:11:24.514Z,17.27
2023-01-13T17:14:29.258Z,17.27
2023-01-13T17:17:31.756Z,17.30
2023-01-13T17:20:34.228Z,15.23
2023-01-13T17:23:36.700Z,18.23
2023-01-13T17:26:44.707Z,17.80
2023-01-13T17:29:50.322Z,21.48
2023-01-13T17:32:53.099Z,16.93
2023-01-13T17:35:55.242Z,16.70
2023-01-13T17:38:58.515Z,19.92
2023-01-13T17:42:00.677Z,16.02
2023-01-13T17:45:03.273Z,17.15
2023-01-13T17:48:06.513Z,18.70
2023-01-13T17:51:12.351Z,18.02
2023-01-13T17:54:15.970Z,17.30
2023-01-13T17:57:18.235Z,17.23
2023-01-13T18:00:21.570Z,14.63
2023-01-13T18:03:23.766Z,14.07
2023-01-13T18:06:26.487Z,14.57
2023-01-13T18:09:29.168Z,13.23
2023-01-13T18:12:32.178Z,13.80
2023-01-13T18:15:34.565Z,15.13
2023-01-13T18:18:38.405Z,14.23
2023-01-13T18:21:58.928Z,14.27
2023-01-13T18:25:21.840Z,13.90
2023-01-13T18:28:24.567Z,13.40
2023-01-13T18:31:28.382Z,14.18
2023-01-13T18:34:33.605Z,13.83
2023-01-13T18:37:43.290Z,15.07
2023-01-13T18:40:47.703Z,15.60
2023-01-13T18:43:51.903Z,15.27
2023-01-13T18:46:56.791Z,14.57
2023-01-13T18:49:59.801Z,15.00
2023-01-13T18:53:02.363Z,15.07
2023-01-13T18:56:14.312Z,16.40
2023-01-13T18:59:21.189Z,16.42
2023-01-13T19:02:27.229Z,17.02
2023-01-13T19:05:29.979Z,15.90
2023-01-13T19:08:33.792Z,15.82
2023-01-13T19:11:36.854Z,16.88
2023-01-13T19:14:42.380Z,17.73
2023-01-13T19:17:45.729Z,16.55
2023-01-13T19:20:51.065Z,16.83
2023-01-13T19:23:55.220Z,17.88
2023-01-13T19:26:57.518Z,16.60
2023-01-13T19:30:03.940Z,15.95
2023-01-13T19:33:06.538Z,16.08
2023-01-13T19:36:10.991Z,15.80
2023-01-13T19:39:14.218Z,17.38
2023-01-13T19:42:34.936Z,27.80
2023-01-13T19:45:37.266Z,20.77
2023-01-13T19:48:43.124Z,17.52
2023-01-13T19:51:45.452Z,17.03
2023-01-13T19:54:48.347Z,20.15
2023-01-13T19:57:50.814Z,20.45
2023-01-13T20:00:54.299Z,18.48
2023-01-13T20:04:02.988Z,17.83
2023-01-13T20:07:06.293Z,17.37
2023-01-13T20:10:09.166Z,19.30
2023-01-13T20:13:11.993Z,19.10
2023-01-13T20:16:14.253Z,20.38
2023-01-13T20:19:16.404Z,22.98
2023-01-13T20:22:18.754Z,20.47
2023-01-13T20:25:22.577Z,20.25
2023-01-13T20:28:24.913Z,21.00
2023-01-13T20:31:30.117Z,25.13
2023-01-13T20:34:32.225Z,26.38
2023-01-13T20:37:35.351Z,22.63
2023-01-13T20:40:37.954Z,25.25
2023-01-13T20:43:40.088Z,27.83
2023-01-13T20:46:43.780Z,26.70
2023-01-13T20:49:46.459Z,24.02
2023-01-13T20:52:48.575Z,23.87
2023-01-13T20:55:50.686Z,21.13
2023-01-13T20:58:53.135Z,21.45
2023-01-13T21:01:56.084Z,19.58
2023-01-13T21:05:02.259Z,21.45
2023-01-13T21:08:07.683Z,20.13
2023-01-13T21:11:12.308Z,21.83
2023-01-13T21:14:39.629Z,24.95
2023-01-13T21:18:00.409Z,27.52
2023-01-13T21:21:11.625Z,22.60
2023-01-13T21:24:14.176Z,21.70
2023-01-13T21:27:16.495Z,24.25
2023-01-13T21:30:19.395Z,25.25
2023-01-13T21:33:22.492Z,26.05
2023-01-13T21:36:28.142Z,26.77
2023-01-13T21:39:30.491Z,26.53
2023-01-13T21:42:51.463Z,25.38
2023-01-13T21:46:12.295Z,25.52
2023-01-13T21:49:17.780Z,25.83
2023-01-13T21:52:20.288Z,22.42
2023-01-13T21:55:25.467Z,23.23
2023-01-13T21:58:27.539Z,25.08
2023-01-13T22:01:29.875Z,22.27
2023-01-13T22:04:32.943Z,27.58
2023-01-13T22:07:41.189Z,23.80
2023-01-13T22:10:57.955Z,27.13
2023-01-13T22:14:07.048Z,27.42
2023-01-13T22:17:09.388Z,30.50
2023-01-13T22:20:13.803Z,29.15
2023-01-13T22:23:17.125Z,25.40
2023-01-13T22:26:19.243Z,25.57
2023-01-13T22:29:21.862Z,25.45
2023-01-13T22:32:24.069Z,25.67
2023-01-13T22:35:26.767Z,26.58
2023-01-13T22:38:30.002Z,25.40
2023-01-13T22:41:32.643Z,26.00
2023-01-13T22:44:35.028Z,25.70
2023-01-13T22:47:37.162Z,25.13
2023-01-13T22:50:39.722Z,25.33
2023-01-13T22:53:43.026Z,24.88
2023-01-13T22:56:45.082Z,24.23
2023-01-13T22:59:47.753Z,25.02
2023-01-13T23:02:52.062Z,24.05
2023-01-13T23:05:58.164Z,25.92
2023-01-13T23:09:03.789Z,25.02
2023-01-13T23:12:10.995Z,23.27
2023-01-13T23:15:12.990Z,26.98
2023-01-13T23:18:14.941Z,27.30
2023-01-13T23:21:25.380Z,26.15
2023-01-13T23:24:29.306Z,27.60
2023-01-13T23:27:31.495Z,28.13
2023-01-13T23:30:34.509Z,29.17
2023-01-13T23:33:41.523Z,28.35
2023-01-13T23:36:44.643Z,31.27
2023-01-13T23:39:46.763Z,30.05
2023-01-13T23:42:49.328Z,27.37
2023-01-13T23:45:51.510Z,27.58
2023-01-13T23:48:55.376Z,30.05
2023-01-13T23:51:57.463Z,27.17
2023-01-13T23:54:59.525Z,27.02
2023-01-13T23:58:04.348Z,27.90
